createdAt,value
2023-05-26T00:00:15.201Z,14.40
2023-05-26T00:02:45.362Z,15.40
2023-05-26T00:05:15.743Z,14.60
2023-05-26T00:07:43.537Z,16.10
2023-05-26T00:10:13.960Z,15.40
2023-05-26T00:12:41.948Z,15.10
2023-05-26T00:15:14.033Z,16.40
2023-05-26T00:17:41.769Z,16.00
2023-05-26T00:20:09.706Z,17.10
2023-05-26T00:22:37.136Z,17.30
2023-05-26T00:25:07.878Z,17.30
2023-05-26T00:27:35.408Z,16.40
2023-05-26T00:30:03.598Z,17.30
2023-05-26T00:32:31.030Z,18.00
2023-05-26T00:34:58.504Z,17.20
2023-05-26T00:37:25.874Z,17.30
2023-05-26T00:39:53.114Z,16.90
2023-05-26T00:42:20.768Z,16.40
2023-05-26T00:44:50.316Z,16.60
2023-05-26T00:47:18.491Z,15.90
2023-05-26T00:49:47.806Z,18.00
2023-05-26T00:52:15.255Z,16.70
2023-05-26T00:54:46.137Z,16.40
2023-05-26T00:57:13.802Z,16.50
2023-05-26T00:59:42.414Z,16.80
2023-05-26T01:05:07.522Z,15.90
2023-05-26T01:07:34.902Z,16.50
2023-05-26T01:10:02.107Z,17.00
2023-05-26T01:12:44.450Z,18.50
2023-05-26T01:15:17.207Z,16.40
2023-05-26T01:18:10.679Z,20.90
2023-05-26T01:20:47.504Z,16.70
2023-05-26T01:23:23.874Z,18.30
2023-05-26T01:26:17.342Z,17.10
2023-05-26T01:28:46.270Z,15.60
2023-05-26T01:31:15.238Z,17.10
2023-05-26T01:33:42.801Z,17.70
2023-05-26T01:36:10.516Z,19.60
2023-05-26T01:38:38.233Z,21.40
2023-05-26T01:41:44.498Z,23.40
2023-05-26T01:44:33.392Z,21.20
2023-05-26T01:47:02.939Z,21.60
2023-05-26T01:49:31.153Z,20.40
2023-05-26T01:52:01.683Z,27.30
2023-05-26T01:54:35.653Z,30.50
2023-05-26T01:57:12.555Z,27.60
2023-05-26T01:59:39.913Z,25.70
2023-05-26T02:02:08.049Z,27.60
2023-05-26T02:04:36.325Z,29.80
2023-05-26T02:07:07.617Z,30.30
2023-05-26T02:09:35.254Z,33.00
2023-05-26T02:12:04.503Z,27.00
2023-05-26T02:14:32.534Z,23.50
2023-05-26T02:17:00.483Z,25.60
2023-05-26T02:19:29.284Z,25.20
2023-05-26T02:21:57.972Z,24.10
2023-05-26T02:24:25.136Z,25.90
2023-05-26T02:26:52.870Z,28.00
2023-05-26T02:29:20.568Z,27.00
2023-05-26T02:31:47.933Z,27.50
2023-05-26T02:34:15.756Z,27.40
2023-05-26T02:36:43.241Z,28.40
2023-05-26T02:39:10.692Z,33.60
2023-05-26T02:41:38.183Z,29.50
2023-05-26T02:44:07.907Z,30.50
2023-05-26T02:46:35.322Z,31.90
2023-05-26T02:49:02.902Z,29.50
2023-05-26T02:51:30.307Z,33.20
2023-05-26T02:53:58.109Z,38.50
2023-05-26T02:56:25.420Z,38.90
2023-05-26T02:58:52.973Z,37.60
2023-05-26T03:01:20.373Z,42.80
2023-05-26T03:03:47.805Z,42.80
2023-05-26T03:06:15.204Z,42.60
2023-05-26T03:08:42.853Z,41.90
2023-05-26T03:11:11.584Z,39.20
2023-05-26T03:13:40.182Z,46.10
2023-05-26T03:16:07.964Z,45.50
2023-05-26T03:18:35.670Z,43.60
2023-05-26T03:21:06.008Z,36.60
2023-05-26T03:23:37.001Z,41.40
2023-05-26T03:26:06.740Z,40.90
2023-05-26T03:28:34.074Z,39.70
2023-05-26T03:31:03.099Z,39.70
2023-05-26T03:33:33.045Z,37.50
2023-05-26T03:36:02.224Z,42.50
2023-05-26T03:38:30.885Z,55.10
2023-05-26T03:40:59.755Z,50.40
2023-05-26T03:43:28.399Z,52.90
2023-05-26T03:45:55.938Z,59.60
2023-05-26T03:48:23.665Z,54.20
2023-05-26T03:50:51.233Z,57.10
2023-05-26T03:53:19.257Z,58.60
2023-05-26T03:55:46.871Z,64.60
2023-05-26T03:58:15.088Z,62.90
2023-05-26T04:00:42.951Z,60.60
2023-05-26T04:03:11.952Z,66.10
2023-05-26T04:05:41.145Z,63.60
2023-05-26T04:08:29.395Z,63.40
2023-05-26T04:10:57.722Z,62.70
2023-05-26T04:13:26.281Z,62.40
2023-05-26T04:15:57.842Z,67.40
2023-05-26T04:18:28.301Z,66.70
2023-05-26T04:20:55.794Z,65.50
2023-05-26T04:23:23.261Z,68.10
2023-05-26T04:25:52.101Z,65.20
2023-05-26T04:28:20.201Z,59.60
2023-05-26T04:30:49.124Z,54.60
2023-05-26T04:33:17.185Z,47.70
2023-05-26T04:35:46.379Z,52.40
2023-05-26T04:38:15.580Z,45.90
2023-05-26T04:40:46.762Z,45.00
2023-05-26T04:43:14.899Z,44.00
2023-05-26T04:45:44.118Z,44.50
2023-05-26T04:48:13.192Z,38.80
2023-05-26T04:50:42.555Z,44.30
2023-05-26T04:53:10.392Z,43.00
2023-05-26T04:55:38.017Z,43.50
2023-05-26T04:58:09.168Z,41.30
2023-05-26T05:00:36.887Z,39.00
2023-05-26T05:03:06.067Z,41.90
2023-05-26T05:05:33.728Z,43.10
2023-05-26T05:08:02.010Z,38.80
2023-05-26T05:10:29.653Z,37.90
2023-05-26T05:12:57.211Z,39.80
2023-05-26T05:15:25.274Z,35.40
2023-05-26T05:17:53.105Z,36.50
2023-05-26T05:20:20.905Z,33.60
2023-05-26T05:22:48.459Z,33.90
2023-05-26T05:25:15.730Z,33.80
2023-05-26T05:27:42.974Z,32.00
2023-05-26T05:30:11.028Z,28.60
2023-05-26T05:32:38.447Z,30.90
2023-05-26T05:35:06.665Z,30.50
2023-05-26T05:37:34.226Z,30.00
2023-05-26T05:40:01.722Z,29.20
2023-05-26T05:42:29.272Z,28.10
2023-05-26T05:44:56.671Z,26.60
2023-05-26T05:47:24.450Z,27.50
2023-05-26T05:49:52.925Z,27.30
2023-05-26T05:52:42.179Z,25.60
2023-05-26T05:55:45.553Z,23.90
2023-05-26T05:58:12.798Z,24.80
2023-05-26T06:00:40.134Z,24.50
2023-05-26T06:03:07.957Z,24.00
2023-05-26T06:05:36.162Z,23.80
2023-05-26T06:08:13.470Z,23.60
2023-05-26T06:10:42.233Z,22.40
2023-05-26T06:13:10.117Z,22.30
2023-05-26T06:16:31.372Z,22.60
2023-05-26T06:19:01.493Z,22.40
2023-05-26T06:21:50.747Z,20.50
2023-05-26T06:24:19.197Z,19.80
2023-05-26T06:27:15.160Z,17.80
2023-05-26T06:29:46.222Z,19.20
2023-05-26T06:32:31.285Z,18.20
2023-05-26T06:34:58.825Z,17.40
2023-05-26T06:38:26.386Z,16.70
2023-05-26T06:41:25.327Z,16.40
2023-05-26T06:44:19.456Z,16.30
2023-05-26T06:46:59.202Z,16.10
2023-05-26T06:49:27.299Z,14.10
2023-05-26T06:51:56.544Z,16.20
2023-05-26T06:55:17.762Z,13.40
2023-05-26T06:58:26.006Z,13.50
2023-05-26T07:01:54.191Z,14.00
2023-05-26T07:05:45.030Z,13.40
2023-05-26T07:09:29.062Z,13.90
2023-05-26T07:12:57.388Z,13.20
2023-05-26T07:15:54.045Z,14.20
2023-05-26T07:18:28.785Z,17.70
2023-05-26T07:21:55.764Z,14.80
2023-05-26T07:25:02.952Z,15.30
2023-05-26T07:32:34.975Z,14.20
2023-05-26T07:36:24.263Z,13.20
2023-05-26T07:39:33.198Z,12.90
2023-05-26T07:42:52.158Z,14.30
2023-05-26T07:45:21.723Z,14.00
2023-05-26T07:48:49.378Z,12.70
2023-05-26T07:52:16.746Z,13.10
2023-05-26T07:55:53.943Z,14.80
2023-05-26T07:59:42.802Z,12.20
2023-05-26T08:03:10.471Z,10.60
2023-05-26T08:06:37.780Z,13.30
2023-05-26T08:09:28.526Z,11.40
2023-05-26T08:12:37.461Z,13.90
2023-05-26T08:15:36.083Z,13.80
2023-05-26T08:18:52.341Z,12.90
2023-05-26T08:22:19.934Z,13.20
2023-05-26T08:25:31.313Z,12.20
2023-05-26T08:28:11.714Z,12.00
2023-05-26T08:30:39.298Z,12.00
2023-05-26T08:33:07.742Z,11.70
2023-05-26T08:36:15.621Z,12.20
2023-05-26T08:38:43.192Z,11.00
2023-05-26T08:41:15.442Z,10.50
2023-05-26T08:44:06.286Z,11.20
2023-05-26T08:46:37.292Z,9.40
2023-05-26T08:49:21.457Z,10.40
2023-05-26T08:52:20.326Z,8.50
2023-05-26T08:54:50.021Z,8.10
2023-05-26T08:57:20.829Z,9.00
2023-05-26T08:59:53.637Z,5.90
2023-05-26T09:02:22.668Z,6.70
2023-05-26T09:04:55.309Z,6.90
2023-05-26T09:07:26.261Z,6.30
2023-05-26T09:09:56.073Z,6.90
2023-05-26T09:12:24.016Z,6.20
2023-05-26T09:14:51.497Z,5.80
2023-05-26T09:17:39.957Z,5.20
2023-05-26T09:20:13.172Z,4.80
2023-05-26T09:22:43.576Z,5.70
2023-05-26T09:25:10.910Z,4.80
2023-05-26T09:27:38.532Z,8.40
2023-05-26T09:30:08.620Z,7.80
2023-05-26T09:32:36.715Z,7.40
2023-05-26T09:35:16.167Z,6.40
2023-05-26T09:37:44.705Z,6.60
2023-05-26T09:40:28.643Z,6.30
2023-05-26T09:42:56.426Z,6.00
2023-05-26T09:45:44.826Z,5.80
2023-05-26T09:48:58.919Z,5.60
2023-05-26T09:51:38.476Z,5.40
2023-05-26T09:54:06.663Z,5.50
2023-05-26T09:56:45.304Z,5.50
2023-05-26T09:59:36.613Z,7.20
2023-05-26T10:02:36.552Z,10.00
2023-05-26T10:05:08.276Z,5.70
2023-05-26T10:07:38.208Z,5.20
2023-05-26T10:11:05.295Z,6.60
2023-05-26T10:13:53.624Z,7.00
2023-05-26T10:16:23.952Z,9.30
2023-05-26T10:18:51.782Z,6.30
2023-05-26T10:22:01.390Z,12.40
2023-05-26T10:24:37.123Z,7.80
2023-05-26T10:27:12.981Z,17.80
2023-05-26T10:32:52.973Z,10.60
2023-05-26T10:35:25.523Z,7.20
2023-05-26T10:37:57.994Z,11.10
2023-05-26T10:40:35.231Z,7.50
2023-05-26T10:43:12.269Z,9.70
2023-05-26T10:46:00.113Z,8.20
2023-05-26T10:48:37.161Z,8.50
2023-05-26T10:51:04.411Z,10.70
2023-05-26T10:53:34.214Z,7.90
2023-05-26T10:56:10.250Z,8.20
2023-05-26T10:58:52.483Z,8.40
2023-05-26T11:01:30.191Z,7.30
2023-05-26T11:04:10.550Z,6.70
2023-05-26T11:06:52.223Z,6.80
2023-05-26T11:09:24.344Z,7.90
2023-05-26T11:11:57.108Z,7.00
2023-05-26T11:14:35.072Z,6.80
2023-05-26T11:17:06.243Z,5.90
2023-05-26T11:19:37.294Z,8.20
2023-05-26T11:22:24.340Z,7.80
2023-05-26T11:24:52.954Z,6.50
2023-05-26T11:27:20.208Z,4.50
2023-05-26T11:30:51.740Z,4.70
2023-05-26T11:33:23.106Z,4.90
2023-05-26T11:35:51.410Z,4.20
2023-05-26T11:38:20.874Z,4.90
2023-05-26T11:40:51.540Z,4.50
2023-05-26T11:43:25.757Z,4.20
2023-05-26T11:45:56.813Z,4.70
2023-05-26T11:48:25.374Z,5.20
2023-05-26T11:50:55.302Z,5.00
2023-05-26T11:53:24.569Z,4.50
2023-05-26T11:56:02.448Z,3.90
2023-05-26T11:58:29.958Z,4.90
2023-05-26T12:01:02.745Z,4.40
2023-05-26T12:03:35.297Z,3.00
2023-05-26T12:06:18.002Z,4.50
2023-05-26T12:08:56.951Z,3.90
2023-05-26T12:11:37.039Z,5.50
2023-05-26T12:14:07.810Z,5.40
2023-05-26T12:16:57.279Z,5.20
2023-05-26T12:19:29.190Z,5.50
2023-05-26T12:22:01.872Z,4.40
2023-05-26T12:24:35.226Z,5.20
2023-05-26T12:27:13.892Z,3.90
2023-05-26T12:29:44.672Z,7.50
2023-05-26T12:32:13.753Z,3.80
2023-05-26T12:34:45.532Z,4.70
2023-05-26T12:37:13.816Z,3.80
2023-05-26T12:40:04.844Z,5.00
2023-05-26T12:42:57.219Z,5.10
2023-05-26T12:46:09.863Z,3.80
2023-05-26T12:49:02.351Z,4.00
2023-05-26T12:51:36.920Z,6.60
2023-05-26T12:54:07.750Z,4.10
2023-05-26T12:56:47.782Z,5.40
2023-05-26T12:59:32.163Z,5.30
2023-05-26T13:02:00.776Z,9.80
2023-05-26T13:05:04.878Z,9.20
2023-05-26T13:07:54.280Z,4.40
2023-05-26T13:10:33.833Z,13.50
2023-05-26T13:13:22.056Z,12.30
2023-05-26T13:15:50.588Z,5.10
2023-05-26T13:18:22.598Z,4.60
2023-05-26T13:20:50.662Z,6.00
2023-05-26T13:23:18.396Z,6.30
2023-05-26T13:25:47.589Z,4.50
2023-05-26T13:28:15.817Z,5.40
2023-05-26T13:30:49.558Z,6.50
2023-05-26T13:34:07.915Z,7.50
2023-05-26T13:36:37.433Z,6.70
2023-05-26T13:39:50.700Z,6.20
2023-05-26T13:42:38.939Z,3.90
2023-05-26T13:45:10.727Z,6.60
2023-05-26T13:48:31.397Z,4.80
2023-05-26T13:51:09.279Z,3.90
2023-05-26T13:53:39.087Z,4.70
2023-05-26T13:57:11.436Z,6.40
2023-05-26T14:00:39.921Z,10.30
2023-05-26T14:03:53.323Z,6.30
2023-05-26T14:07:14.427Z,7.70
2023-05-26T14:10:34.717Z,8.40
2023-05-26T14:14:02.427Z,6.40
2023-05-26T14:17:07.695Z,6.50
2023-05-26T14:19:50.562Z,5.30
2023-05-26T14:22:31.683Z,4.50
2023-05-26T14:25:40.907Z,6.70
2023-05-26T14:28:28.961Z,5.40
2023-05-26T14:31:16.290Z,7.20
2023-05-26T14:34:28.158Z,6.90
2023-05-26T14:37:40.830Z,4.80
2023-05-26T14:40:22.284Z,10.90
2023-05-26T14:42:53.955Z,5.60
2023-05-26T14:45:21.483Z,5.50
2023-05-26T14:47:51.448Z,4.40
2023-05-26T14:51:00.556Z,6.80
2023-05-26T14:53:31.460Z,6.10
2023-05-26T14:56:05.311Z,6.00
2023-05-26T14:58:43.783Z,7.10
2023-05-26T15:01:12.056Z,6.20
2023-05-26T15:04:00.966Z,5.70
2023-05-26T15:06:32.697Z,7.10
2023-05-26T15:09:00.300Z,8.30
2023-05-26T15:11:28.615Z,4.30
2023-05-26T15:13:56.991Z,7.60
2023-05-26T15:16:25.008Z,4.60
2023-05-26T15:22:11.378Z,4.90
2023-05-26T15:25:17.920Z,5.90
2023-05-26T15:28:09.047Z,4.00
2023-05-26T15:31:25.236Z,5.60
2023-05-26T15:34:02.830Z,4.90
2023-05-26T15:36:58.527Z,7.30
2023-05-26T15:40:25.713Z,5.30
2023-05-26T15:43:34.817Z,5.70
2023-05-26T15:46:51.935Z,5.30
2023-05-26T15:49:59.639Z,5.10
2023-05-26T15:53:23.267Z,6.80
2023-05-26T15:57:02.602Z,5.80
2023-05-26T16:00:48.112Z,4.90
2023-05-26T16:03:22.604Z,5.00
2023-05-26T16:05:53.549Z,6.30
2023-05-26T16:08:42.534Z,5.10
2023-05-26T16:11:18.350Z,4.60
2023-05-26T16:14:45.323Z,3.90
2023-05-26T16:18:15.797Z,6.30
2023-05-26T16:21:47.035Z,3.40
2023-05-26T16:25:14.898Z,4.80
2023-05-26T16:29:02.408Z,3.50
2023-05-26T16:32:29.812Z,4.40
2023-05-26T16:35:57.835Z,4.40
2023-05-26T16:39:24.756Z,20.40
2023-05-26T16:42:56.381Z,5.40
2023-05-26T16:46:34.906Z,4.20
2023-05-26T16:50:02.716Z,4.50
2023-05-26T16:53:49.949Z,5.00
2023-05-26T16:57:37.095Z,3.80
2023-05-26T17:00:52.611Z,6.40
2023-05-26T17:04:19.777Z,4.20
2023-05-26T17:08:06.863Z,4.20
2023-05-26T17:11:53.824Z,5.20
2023-05-26T17:15:21.027Z,4.10
2023-05-26T17:18:46.646Z,3.30
2023-05-26T17:22:13.774Z,4.80
2023-05-26T17:25:41.306Z,5.80
2023-05-26T17:29:28.161Z,7.60
2023-05-26T17:35:24.047Z,4.20
2023-05-26T17:37:53.923Z,5.00
2023-05-26T17:40:23.955Z,6.30
2023-05-26T17:42:51.216Z,6.70
2023-05-26T17:45:18.643Z,6.90
2023-05-26T17:47:46.489Z,6.00
2023-05-26T17:50:55.474Z,7.60
2023-05-26T17:54:23.294Z,6.10
2023-05-26T18:00:23.475Z,4.20
2023-05-26T18:03:53.186Z,6.80
2023-05-26T18:07:02.166Z,5.70
2023-05-26T18:10:30.394Z,8.10
2023-05-26T18:12:59.172Z,6.40
2023-05-26T18:16:02.899Z,7.40
2023-05-26T18:19:26.562Z,5.50
2023-05-26T18:22:54.025Z,5.00
2023-05-26T18:26:21.216Z,5.40
2023-05-26T18:29:46.089Z,8.30
2023-05-26T18:33:15.194Z,5.80
2023-05-26T18:36:30.711Z,4.90
2023-05-26T18:39:12.640Z,4.90
2023-05-26T18:42:02.540Z,5.50
2023-05-26T18:45:05.189Z,6.60
2023-05-26T18:48:22.810Z,5.40
2023-05-26T18:51:30.608Z,10.00
2023-05-26T18:54:40.562Z,17.60
2023-05-26T18:57:57.584Z,23.30
2023-05-26T19:01:25.707Z,14.80
2023-05-26T19:05:12.603Z,15.90
2023-05-26T19:08:21.224Z,13.70
2023-05-26T19:11:48.368Z,15.00
2023-05-26T19:14:43.452Z,17.00
2023-05-26T19:17:11.473Z,18.60
2023-05-26T19:19:41.272Z,10.20
2023-05-26T19:22:15.932Z,7.40
2023-05-26T19:24:48.379Z,4.70
2023-05-26T19:27:16.111Z,6.80
2023-05-26T19:29:45.007Z,10.50
2023-05-26T19:32:17.297Z,7.10
2023-05-26T19:35:03.022Z,10.70
2023-05-26T19:37:41.417Z,7.60
2023-05-26T19:40:20.681Z,7.60
2023-05-26T19:43:11.194Z,9.60
2023-05-26T19:45:47.792Z,15.60
2023-05-26T19:48:56.803Z,22.90
2023-05-26T19:52:03.984Z,19.70
2023-05-26T19:54:31.411Z,25.20
2023-05-26T19:57:43.278Z,25.80
2023-05-26T20:00:58.750Z,21.60
2023-05-26T20:04:10.863Z,13.90
2023-05-26T20:07:05.007Z,15.80
2023-05-26T20:10:04.305Z,10.60
2023-05-26T20:12:51.886Z,9.60
2023-05-26T20:15:50.805Z,13.30
2023-05-26T20:18:38.941Z,13.50
2023-05-26T20:22:06.227Z,15.50
2023-05-26T20:25:34.504Z,28.40
2023-05-26T20:28:23.346Z,19.60
2023-05-26T20:31:14.369Z,14.30
2023-05-26T20:34:27.311Z,12.80
2023-05-26T20:37:21.082Z,13.10
2023-05-26T20:40:33.141Z,14.10
2023-05-26T20:43:52.941Z,11.60
2023-05-26T20:47:15.060Z,7.20
2023-05-26T20:50:42.427Z,12.10
2023-05-26T20:53:52.263Z,8.90
2023-05-26T20:57:01.408Z,8.00
2023-05-26T20:59:53.762Z,7.90
2023-05-26T21:02:46.793Z,7.60
2023-05-26T21:05:25.910Z,6.40
2023-05-26T21:08:17.173Z,7.40
2023-05-26T21:10:45.498Z,8.10
2023-05-26T21:13:21.916Z,7.30
2023-05-26T21:15:59.727Z,6.00
2023-05-26T21:18:34.613Z,9.90
2023-05-26T21:21:04.870Z,6.40
2023-05-26T21:23:54.231Z,7.70
2023-05-26T21:26:24.287Z,6.60
2023-05-26T21:28:51.924Z,9.90
2023-05-26T21:31:43.010Z,7.60
2023-05-26T21:34:29.692Z,9.90
2023-05-26T21:36:59.601Z,8.90
2023-05-26T21:39:51.365Z,9.60
2023-05-26T21:42:44.647Z,7.10
2023-05-26T21:45:17.131Z,20.80
2023-05-26T21:48:07.327Z,18.00
2023-05-26T21:50:46.255Z,10.70
2023-05-26T21:53:17.264Z,9.90
2023-05-26T21:56:12.571Z,9.50
2023-05-26T21:59:06.192Z,6.90
2023-05-26T22:01:35.987Z,7.20
2023-05-26T22:04:04.345Z,8.60
2023-05-26T22:06:33.166Z,7.70
2023-05-26T22:09:00.711Z,7.40
2023-05-26T22:11:28.787Z,9.60
2023-05-26T22:13:56.599Z,6.60
2023-05-26T22:16:24.121Z,8.80
2023-05-26T22:18:51.750Z,9.30
2023-05-26T22:21:19.537Z,6.70
2023-05-26T22:23:47.612Z,8.10
2023-05-26T22:26:15.087Z,9.20
2023-05-26T22:28:43.255Z,8.60
2023-05-26T22:31:10.583Z,8.20
2023-05-26T22:33:37.953Z,8.90
2023-05-26T22:36:05.530Z,10.80
2023-05-26T22:38:32.990Z,7.90
2023-05-26T22:41:01.932Z,9.00
2023-05-26T22:43:29.690Z,8.30
2023-05-26T22:45:57.398Z,9.00
2023-05-26T22:48:25.618Z,5.80
2023-05-26T22:50:54.690Z,9.50
2023-05-26T22:53:22.353Z,7.90
2023-05-26T22:56:00.244Z,7.90
2023-05-26T22:58:33.239Z,10.10
2023-05-26T23:01:01.613Z,8.70
2023-05-26T23:03:29.348Z,8.30
2023-05-26T23:05:57.480Z,8.80
2023-05-26T23:08:24.957Z,9.30
2023-05-26T23:10:52.240Z,7.80
2023-05-26T23:13:22.262Z,9.40
2023-05-26T23:15:49.972Z,6.20
2023-05-26T23:18:17.317Z,8.00
2023-05-26T23:20:45.828Z,7.30
2023-05-26T23:23:14.161Z,8.80
2023-05-26T23:25:42.186Z,8.10
2023-05-26T23:28:09.724Z,9.50
2023-05-26T23:30:38.439Z,8.20
2023-05-26T23:33:05.976Z,8.70
2023-05-26T23:35:33.623Z,7.00
2023-05-26T23:38:03.211Z,9.50
2023-05-26T23:40:31.026Z,8.20
2023-05-26T23:43:00.081Z,9.10
2023-05-26T23:45:28.277Z,9.10
2023-05-26T23:47:56.682Z,11.90
2023-05-26T23:50:24.178Z,10.40
2023-05-26T23:52:51.823Z,10.30
2023-05-26T23:55:19.497Z,8.90
2023-05-26T23:57:48.032Z,11.10
